sensor_id;sensor_type;location;lat;lon;timestamp;temperature;humidity
26599;DHT22;14240;51.064;16.612;2023-05-07T00:00:39;8.90;99.90
26599;DHT22;14240;51.064;16.612;2023-05-07T00:03:05;8.90;99.90
26599;DHT22;14240;51.064;16.612;2023-05-07T00:05:32;8.90;99.90
26599;DHT22;14240;51.064;16.612;2023-05-07T00:07:57;8.90;99.90
26599;DHT22;14240;51.064;16.612;2023-05-07T00:10:23;8.90;99.90
26599;DHT22;14240;51.064;16.612;2023-05-07T00:12:49;8.90;99.90
26599;DHT22;14240;51.064;16.612;2023-05-07T00:15:14;8.90;99.90
26599;DHT22;14240;51.064;16.612;2023-05-07T00:17:40;8.80;99.90
26599;DHT22;14240;51.064;16.612;2023-05-07T00:20:06;8.80;99.90
26599;DHT22;14240;51.064;16.612;2023-05-07T00:22:32;8.80;99.90
26599;DHT22;14240;51.064;16.612;2023-05-07T00:24:58;8.80;99.90
26599;DHT22;14240;51.064;16.612;2023-05-07T00:27:25;8.80;99.90
26599;DHT22;14240;51.064;16.612;2023-05-07T00:29:51;8.80;99.90
26599;DHT22;14240;51.064;16.612;2023-05-07T00:32:16;8.80;99.90
26599;DHT22;14240;51.064;16.612;2023-05-07T00:34:43;8.80;99.90
26599;DHT22;14240;51.064;16.612;2023-05-07T00:37:09;8.80;99.90
26599;DHT22;14240;51.064;16.612;2023-05-07T00:39:35;8.80;99.90
26599;DHT22;14240;51.064;16.612;2023-05-07T00:42:01;8.80;99.90
26599;DHT22;14240;51.064;16.612;2023-05-07T00:44:28;8.80;99.90
26599;DHT22;14240;51.064;16.612;2023-05-07T00:46:56;8.80;99.90
26599;DHT22;14240;51.064;16.612;2023-05-07T00:49:26;8.80;99.90
26599;DHT22;14240;51.064;16.612;2023-05-07T00:51:56;8.80;99.90
26599;DHT22;14240;51.064;16.612;2023-05-07T00:54:22;8.80;99.90
26599;DHT22;14240;51.064;16.612;2023-05-07T00:56:48;8.80;99.90
26599;DHT22;14240;51.064;16.612;2023-05-07T00:59:13;8.70;99.90
26599;DHT22;14240;51.064;16.612;2023-05-07T01:01:39;8.80;99.90
26599;DHT22;14240;51.064;16.612;2023-05-07T01:04:05;8.70;99.90
26599;DHT22;14240;51.064;16.612;2023-05-07T01:06:32;8.70;99.90
26599;DHT22;14240;51.064;16.612;2023-05-07T01:08:58;8.70;99.90
26599;DHT22;14240;51.064;16.612;2023-05-07T01:11:25;8.70;99.90
26599;DHT22;14240;51.064;16.612;2023-05-07T01:13:51;8.70;99.90
26599;DHT22;14240;51.064;16.612;2023-05-07T01:16:17;8.70;99.90
26599;DHT22;14240;51.064;16.612;2023-05-07T01:18:43;8.70;99.90
26599;DHT22;14240;51.064;16.612;2023-05-07T01:21:11;8.70;99.90
26599;DHT22;14240;51.064;16.612;2023-05-07T01:23:37;8.70;99.90
26599;DHT22;14240;51.064;16.612;2023-05-07T01:26:03;8.70;99.90
26599;DHT22;14240;51.064;16.612;2023-05-07T01:28:29;8.60;99.90
26599;DHT22;14240;51.064;16.612;2023-05-07T01:31:00;8.70;99.90
26599;DHT22;14240;51.064;16.612;2023-05-07T01:33:34;8.70;99.90
26599;DHT22;14240;51.064;16.612;2023-05-07T01:36:00;8.60;99.90
26599;DHT22;14240;51.064;16.612;2023-05-07T01:38:29;8.70;99.90
26599;DHT22;14240;51.064;16.612;2023-05-07T01:40:56;8.70;99.90
26599;DHT22;14240;51.064;16.612;2023-05-07T01:43:21;8.70;99.90
26599;DHT22;14240;51.064;16.612;2023-05-07T01:45:48;8.70;99.90
26599;DHT22;14240;51.064;16.612;2023-05-07T01:48:15;8.60;99.90
26599;DHT22;14240;51.064;16.612;2023-05-07T01:50:42;8.70;99.90
26599;DHT22;14240;51.064;16.612;2023-05-07T01:53:08;8.60;99.90
26599;DHT22;14240;51.064;16.612;2023-05-07T01:55:34;8.60;99.90
26599;DHT22;14240;51.064;16.612;2023-05-07T01:58:02;8.60;99.90
26599;DHT22;14240;51.064;16.612;2023-05-07T02:00:28;8.60;99.90
26599;DHT22;14240;51.064;16.612;2023-05-07T02:02:54;8.70;99.90
26599;DHT22;14240;51.064;16.612;2023-05-07T02:05:20;8.70;99.90
26599;DHT22;14240;51.064;16.612;2023-05-07T02:07:46;8.70;99.90
26599;DHT22;14240;51.064;16.612;2023-05-07T02:10:11;8.70;99.90
26599;DHT22;14240;51.064;16.612;2023-05-07T02:12:37;8.70;99.90
26599;DHT22;14240;51.064;16.612;2023-05-07T02:15:03;8.70;99.90
26599;DHT22;14240;51.064;16.612;2023-05-07T02:17:29;8.70;99.90
26599;DHT22;14240;51.064;16.612;2023-05-07T02:19:57;8.80;99.90
26599;DHT22;14240;51.064;16.612;2023-05-07T02:22:23;8.80;99.90
26599;DHT22;14240;51.064;16.612;2023-05-07T02:24:48;8.80;99.90
26599;DHT22;14240;51.064;16.612;2023-05-07T02:27:14;8.70;99.90
26599;DHT22;14240;51.064;16.612;2023-05-07T02:29:40;8.70;99.90
26599;DHT22;14240;51.064;16.612;2023-05-07T02:32:06;8.70;99.90
26599;DHT22;14240;51.064;16.612;2023-05-07T02:34:31;8.70;99.90
26599;DHT22;14240;51.064;16.612;2023-05-07T02:36:57;8.70;99.90
26599;DHT22;14240;51.064;16.612;2023-05-07T02:39:23;8.70;99.90
26599;DHT22;14240;51.064;16.612;2023-05-07T02:41:49;8.70;99.90
26599;DHT22;14240;51.064;16.612;2023-05-07T02:44:14;8.80;99.90
26599;DHT22;14240;51.064;16.612;2023-05-07T02:46:40;8.80;99.90
26599;DHT22;14240;51.064;16.612;2023-05-07T02:49:06;8.80;99.90
26599;DHT22;14240;51.064;16.612;2023-05-07T02:51:32;8.80;99.90
26599;DHT22;14240;51.064;16.612;2023-05-07T02:53:58;8.80;99.90
26599;DHT22;14240;51.064;16.612;2023-05-07T02:56:28;8.80;99.90
26599;DHT22;14240;51.064;16.612;2023-05-07T02:58:54;8.80;99.90
26599;DHT22;14240;51.064;16.612;2023-05-07T03:01:20;8.80;99.90
26599;DHT22;14240;51.064;16.612;2023-05-07T03:03:46;8.70;99.90
26599;DHT22;14240;51.064;16.612;2023-05-07T03:06:12;8.80;99.90
26599;DHT22;14240;51.064;16.612;2023-05-07T03:08:37;8.80;99.90
26599;DHT22;14240;51.064;16.612;2023-05-07T03:11:03;8.80;99.90
26599;DHT22;14240;51.064;16.612;2023-05-07T03:13:29;8.80;99.90
26599;DHT22;14240;51.064;16.612;2023-05-07T03:15:54;8.80;99.90
26599;DHT22;14240;51.064;16.612;2023-05-07T03:18:20;8.70;99.90
26599;DHT22;14240;51.064;16.612;2023-05-07T03:20:47;8.70;99.90
26599;DHT22;14240;51.064;16.612;2023-05-07T03:23:13;8.70;99.90
26599;DHT22;14240;51.064;16.612;2023-05-07T03:25:38;8.70;99.90
26599;DHT22;14240;51.064;16.612;2023-05-07T03:28:04;8.70;99.90
26599;DHT22;14240;51.064;16.612;2023-05-07T03:30:31;8.70;99.90
26599;DHT22;14240;51.064;16.612;2023-05-07T03:32:56;8.70;99.90
26599;DHT22;14240;51.064;16.612;2023-05-07T03:35:22;8.70;99.90
26599;DHT22;14240;51.064;16.612;2023-05-07T03:37:48;8.70;99.90
26599;DHT22;14240;51.064;16.612;2023-05-07T03:40:14;8.70;99.90
26599;DHT22;14240;51.064;16.612;2023-05-07T03:42:40;8.70;99.90
26599;DHT22;14240;51.064;16.612;2023-05-07T03:45:06;8.70;99.90
26599;DHT22;14240;51.064;16.612;2023-05-07T03:47:32;8.70;99.90
26599;DHT22;14240;51.064;16.612;2023-05-07T03:49:58;8.70;99.90
26599;DHT22;14240;51.064;16.612;2023-05-07T03:52:25;8.70;99.90
26599;DHT22;14240;51.064;16.612;2023-05-07T03:54:52;8.70;99.90
26599;DHT22;14240;51.064;16.612;2023-05-07T03:57:18;8.70;99.90
26599;DHT22;14240;51.064;16.612;2023-05-07T03:59:44;8.60;99.90
26599;DHT22;14240;51.064;16.612;2023-05-07T04:02:09;8.70;99.90
26599;DHT22;14240;51.064;16.612;2023-05-07T04:04:35;8.60;99.90
26599;DHT22;14240;51.064;16.612;2023-05-07T04:07:01;8.60;99.90
26599;DHT22;14240;51.064;16.612;2023-05-07T04:09:27;8.60;99.90
26599;DHT22;14240;51.064;16.612;2023-05-07T04:11:52;8.60;99.90
26599;DHT22;14240;51.064;16.612;2023-05-07T04:14:18;8.60;99.90
26599;DHT22;14240;51.064;16.612;2023-05-07T04:16:44;8.60;99.90
26599;DHT22;14240;51.064;16.612;2023-05-07T04:19:09;8.60;99.90
26599;DHT22;14240;51.064;16.612;2023-05-07T04:21:35;8.60;99.90
26599;DHT22;14240;51.064;16.612;2023-05-07T04:24:03;8.60;99.90
26599;DHT22;14240;51.064;16.612;2023-05-07T04:26:28;8.60;99.90
26599;DHT22;14240;51.064;16.612;2023-05-07T04:28:55;8.60;99.90
26599;DHT22;14240;51.064;16.612;2023-05-07T04:31:20;8.60;99.90
26599;DHT22;14240;51.064;16.612;2023-05-07T04:33:46;8.60;99.90
26599;DHT22;14240;51.064;16.612;2023-05-07T04:36:12;8.60;99.90
26599;DHT22;14240;51.064;16.612;2023-05-07T04:38:37;8.60;99.90
26599;DHT22;14240;51.064;16.612;2023-05-07T04:41:05;8.60;99.90
26599;DHT22;14240;51.064;16.612;2023-05-07T04:43:31;8.60;99.90
26599;DHT22;14240;51.064;16.612;2023-05-07T04:45:57;8.60;99.90
26599;DHT22;14240;51.064;16.612;2023-05-07T04:48:22;8.60;99.90
26599;DHT22;14240;51.064;16.612;2023-05-07T04:50:49;8.60;99.90
26599;DHT22;14240;51.064;16.612;2023-05-07T04:53:16;8.50;99.90
26599;DHT22;14240;51.064;16.612;2023-05-07T04:55:42;8.50;99.90
26599;DHT22;14240;51.064;16.612;2023-05-07T04:58:08;8.50;99.90
26599;DHT22;14240;51.064;16.612;2023-05-07T05:00:34;8.50;99.90
26599;DHT22;14240;51.064;16.612;2023-05-07T05:03:00;8.50;99.90
26599;DHT22;14240;51.064;16.612;2023-05-07T05:05:26;8.50;99.90
26599;DHT22;14240;51.064;16.612;2023-05-07T05:07:52;8.50;99.90
26599;DHT22;14240;51.064;16.612;2023-05-07T05:10:18;8.50;99.90
26599;DHT22;14240;51.064;16.612;2023-05-07T05:12:44;8.40;99.90
26599;DHT22;14240;51.064;16.612;2023-05-07T05:15:12;8.40;99.90
26599;DHT22;14240;51.064;16.612;2023-05-07T05:17:38;8.40;99.90
26599;DHT22;14240;51.064;16.612;2023-05-07T05:20:05;8.40;99.90
26599;DHT22;14240;51.064;16.612;2023-05-07T05:22:31;8.40;99.90
26599;DHT22;14240;51.064;16.612;2023-05-07T05:24:57;8.40;99.90
26599;DHT22;14240;51.064;16.612;2023-05-07T05:27:23;8.40;99.90
26599;DHT22;14240;51.064;16.612;2023-05-07T05:29:49;8.40;99.90
26599;DHT22;14240;51.064;16.612;2023-05-07T05:32:15;8.40;99.90
26599;DHT22;14240;51.064;16.612;2023-05-07T05:34:40;8.40;99.90
26599;DHT22;14240;51.064;16.612;2023-05-07T05:37:06;8.40;99.90
26599;DHT22;14240;51.064;16.612;2023-05-07T05:39:32;7.70;99.90
26599;DHT22;14240;51.064;16.612;2023-05-07T05:41:58;8.40;99.90
26599;DHT22;14240;51.064;16.612;2023-05-07T05:44:23;8.40;99.90
26599;DHT22;14240;51.064;16.612;2023-05-07T05:46:49;8.50;99.90
26599;DHT22;14240;51.064;16.612;2023-05-07T05:49:15;8.50;99.90
26599;DHT22;14240;51.064;16.612;2023-05-07T05:51:41;8.50;99.90
26599;DHT22;14240;51.064;16.612;2023-05-07T05:54:07;8.50;99.90
26599;DHT22;14240;51.064;16.612;2023-05-07T05:56:33;8.60;99.90
26599;DHT22;14240;51.064;16.612;2023-05-07T06:02:05;8.60;99.90
26599;DHT22;14240;51.064;16.612;2023-05-07T06:04:31;8.70;99.90
26599;DHT22;14240;51.064;16.612;2023-05-07T06:06:57;8.80;99.90
26599;DHT22;14240;51.064;16.612;2023-05-07T06:09:22;8.80;99.90
26599;DHT22;14240;51.064;16.612;2023-05-07T06:11:48;8.90;99.90
26599;DHT22;14240;51.064;16.612;2023-05-07T06:14:14;9.00;99.90
26599;DHT22;14240;51.064;16.612;2023-05-07T06:16:40;9.00;99.90
26599;DHT22;14240;51.064;16.612;2023-05-07T06:19:05;9.00;99.90
26599;DHT22;14240;51.064;16.612;2023-05-07T06:21:31;9.00;99.90
26599;DHT22;14240;51.064;16.612;2023-05-07T06:23:57;9.00;99.90
26599;DHT22;14240;51.064;16.612;2023-05-07T06:26:22;9.10;99.90
26599;DHT22;14240;51.064;16.612;2023-05-07T06:28:48;9.10;99.90
26599;DHT22;14240;51.064;16.612;2023-05-07T06:31:15;9.10;99.90
26599;DHT22;14240;51.064;16.612;2023-05-07T06:33:42;9.20;99.90
26599;DHT22;14240;51.064;16.612;2023-05-07T06:36:08;9.10;99.90
26599;DHT22;14240;51.064;16.612;2023-05-07T06:38:34;9.10;99.90
26599;DHT22;14240;51.064;16.612;2023-05-07T06:40:59;9.20;99.90
26599;DHT22;14240;51.064;16.612;2023-05-07T06:43:25;9.20;99.90
26599;DHT22;14240;51.064;16.612;2023-05-07T06:45:50;9.10;99.90
26599;DHT22;14240;51.064;16.612;2023-05-07T06:48:16;9.10;99.90
26599;DHT22;14240;51.064;16.612;2023-05-07T06:50:42;9.20;99.90
26599;DHT22;14240;51.064;16.612;2023-05-07T06:53:07;9.20;99.90
26599;DHT22;14240;51.064;16.612;2023-05-07T06:55:33;9.20;99.90
26599;DHT22;14240;51.064;16.612;2023-05-07T06:57:59;9.20;99.90
26599;DHT22;14240;51.064;16.612;2023-05-07T07:00:27;9.20;99.90
26599;DHT22;14240;51.064;16.612;2023-05-07T07:02:54;9.30;99.90
26599;DHT22;14240;51.064;16.612;2023-05-07T07:05:20;9.30;99.90
26599;DHT22;14240;51.064;16.612;2023-05-07T07:07:45;9.30;99.90
26599;DHT22;14240;51.064;16.612;2023-05-07T07:10:23;9.30;99.90
26599;DHT22;14240;51.064;16.612;2023-05-07T07:12:50;9.40;99.90
26599;DHT22;14240;51.064;16.612;2023-05-07T07:15:16;9.40;99.90
26599;DHT22;14240;51.064;16.612;2023-05-07T07:17:41;9.50;99.90
26599;DHT22;14240;51.064;16.612;2023-05-07T07:20:07;9.50;99.90
26599;DHT22;14240;51.064;16.612;2023-05-07T07:22:33;9.60;99.90
26599;DHT22;14240;51.064;16.612;2023-05-07T07:24:59;9.60;99.90
26599;DHT22;14240;51.064;16.612;2023-05-07T07:27:25;9.70;99.90
26599;DHT22;14240;51.064;16.612;2023-05-07T07:29:51;9.70;99.90
26599;DHT22;14240;51.064;16.612;2023-05-07T07:32:17;9.70;99.90
26599;DHT22;14240;51.064;16.612;2023-05-07T07:34:42;9.80;99.90
26599;DHT22;14240;51.064;16.612;2023-05-07T07:37:08;9.70;99.90
26599;DHT22;14240;51.064;16.612;2023-05-07T07:39:34;9.70;99.90
26599;DHT22;14240;51.064;16.612;2023-05-07T07:42:00;9.70;99.90
26599;DHT22;14240;51.064;16.612;2023-05-07T07:44:27;9.80;99.90
26599;DHT22;14240;51.064;16.612;2023-05-07T07:46:52;9.90;99.90
26599;DHT22;14240;51.064;16.612;2023-05-07T07:49:18;9.90;99.90
26599;DHT22;14240;51.064;16.612;2023-05-07T07:51:44;10.00;99.90
26599;DHT22;14240;51.064;16.612;2023-05-07T07:54:10;10.00;99.90
26599;DHT22;14240;51.064;16.612;2023-05-07T07:56:35;10.10;99.90
26599;DHT22;14240;51.064;16.612;2023-05-07T07:59:01;10.10;99.90
26599;DHT22;14240;51.064;16.612;2023-05-07T08:01:29;10.10;99.90
26599;DHT22;14240;51.064;16.612;2023-05-07T08:03:55;10.10;99.90
26599;DHT22;14240;51.064;16.612;2023-05-07T08:06:21;10.10;99.90
26599;DHT22;14240;51.064;16.612;2023-05-07T08:08:46;10.10;99.90
26599;DHT22;14240;51.064;16.612;2023-05-07T08:11:12;10.10;99.90
26599;DHT22;14240;51.064;16.612;2023-05-07T08:13:38;10.10;99.90
26599;DHT22;14240;51.064;16.612;2023-05-07T08:16:04;10.10;99.90
26599;DHT22;14240;51.064;16.612;2023-05-07T08:18:30;10.10;99.90
26599;DHT22;14240;51.064;16.612;2023-05-07T08:20:56;10.10;99.90
26599;DHT22;14240;51.064;16.612;2023-05-07T08:23:22;10.20;99.90
26599;DHT22;14240;51.064;16.612;2023-05-07T08:25:49;10.50;99.90
26599;DHT22;14240;51.064;16.612;2023-05-07T08:28:14;10.70;99.90
26599;DHT22;14240;51.064;16.612;2023-05-07T08:30:40;11.00;99.90
26599;DHT22;14240;51.064;16.612;2023-05-07T08:33:08;11.20;99.90
26599;DHT22;14240;51.064;16.612;2023-05-07T08:35:34;11.40;99.90
26599;DHT22;14240;51.064;16.612;2023-05-07T08:37:59;11.60;99.90
26599;DHT22;14240;51.064;16.612;2023-05-07T08:40:26;11.70;99.90
26599;DHT22;14240;51.064;16.612;2023-05-07T08:42:53;11.70;99.90
26599;DHT22;14240;51.064;16.612;2023-05-07T08:45:19;11.70;99.90
26599;DHT22;14240;51.064;16.612;2023-05-07T08:47:52;11.60;99.90
26599;DHT22;14240;51.064;16.612;2023-05-07T08:50:18;11.60;99.90
26599;DHT22;14240;51.064;16.612;2023-05-07T08:52:45;11.60;99.90
26599;DHT22;14240;51.064;16.612;2023-05-07T08:55:12;11.60;99.90
26599;DHT22;14240;51.064;16.612;2023-05-07T08:57:38;11.50;99.90
26599;DHT22;14240;51.064;16.612;2023-05-07T09:00:05;11.50;99.90
26599;DHT22;14240;51.064;16.612;2023-05-07T09:02:33;11.40;99.90
26599;DHT22;14240;51.064;16.612;2023-05-07T09:04:58;11.30;99.90
26599;DHT22;14240;51.064;16.612;2023-05-07T09:07:25;11.20;99.90
26599;DHT22;14240;51.064;16.612;2023-05-07T09:09:51;11.10;99.90
26599;DHT22;14240;51.064;16.612;2023-05-07T09:12:18;11.10;99.90
26599;DHT22;14240;51.064;16.612;2023-05-07T09:14:44;11.00;99.90
26599;DHT22;14240;51.064;16.612;2023-05-07T09:17:11;10.90;99.90
26599;DHT22;14240;51.064;16.612;2023-05-07T09:19:37;10.80;99.90
26599;DHT22;14240;51.064;16.612;2023-05-07T09:22:04;10.70;99.90
26599;DHT22;14240;51.064;16.612;2023-05-07T09:24:32;10.70;99.90
26599;DHT22;14240;51.064;16.612;2023-05-07T09:27:06;10.60;99.90
26599;DHT22;14240;51.064;16.612;2023-05-07T09:29:34;10.60;99.90
26599;DHT22;14240;51.064;16.612;2023-05-07T09:32:04;10.50;99.90
26599;DHT22;14240;51.064;16.612;2023-05-07T09:34:30;10.50;99.90
26599;DHT22;14240;51.064;16.612;2023-05-07T09:36:57;10.50;99.90
26599;DHT22;14240;51.064;16.612;2023-05-07T09:39:24;10.40;99.90
26599;DHT22;14240;51.064;16.612;2023-05-07T09:41:51;10.50;99.90
26599;DHT22;14240;51.064;16.612;2023-05-07T09:44:20;10.50;99.90
26599;DHT22;14240;51.064;16.612;2023-05-07T09:46:47;10.50;99.90
26599;DHT22;14240;51.064;16.612;2023-05-07T09:49:22;10.50;99.90
26599;DHT22;14240;51.064;16.612;2023-05-07T09:51:49;10.50;99.90
26599;DHT22;14240;51.064;16.612;2023-05-07T09:54:16;10.50;99.90
26599;DHT22;14240;51.064;16.612;2023-05-07T09:56:43;10.40;99.90
26599;DHT22;14240;51.064;16.612;2023-05-07T09:59:14;10.40;99.90
26599;DHT22;14240;51.064;16.612;2023-05-07T10:01:42;10.40;99.90
26599;DHT22;14240;51.064;16.612;2023-05-07T10:04:09;10.30;99.90
26599;DHT22;14240;51.064;16.612;2023-05-07T10:06:36;10.30;99.90
26599;DHT22;14240;51.064;16.612;2023-05-07T10:09:04;10.30;99.90
26599;DHT22;14240;51.064;16.612;2023-05-07T10:11:34;10.20;99.90
26599;DHT22;14240;51.064;16.612;2023-05-07T10:14:04;10.20;99.90
26599;DHT22;14240;51.064;16.612;2023-05-07T10:16:34;10.20;99.90
26599;DHT22;14240;51.064;16.612;2023-05-07T10:19:05;10.30;99.90
26599;DHT22;14240;51.064;16.612;2023-05-07T10:21:36;10.30;99.90
26599;DHT22;14240;51.064;16.612;2023-05-07T10:26:36;10.50;99.90
26599;DHT22;14240;51.064;16.612;2023-05-07T10:34:23;10.80;99.90
26599;DHT22;14240;51.064;16.612;2023-05-07T10:36:51;10.80;99.90
26599;DHT22;14240;51.064;16.612;2023-05-07T10:39:17;10.80;99.90
26599;DHT22;14240;51.064;16.612;2023-05-07T10:41:43;10.70;99.90
26599;DHT22;14240;51.064;16.612;2023-05-07T10:44:09;10.70;99.90
26599;DHT22;14240;51.064;16.612;2023-05-07T10:46:35;10.60;99.90
26599;DHT22;14240;51.064;16.612;2023-05-07T10:51:29;10.60;99.90
26599;DHT22;14240;51.064;16.612;2023-05-07T10:56:40;10.80;99.90
26599;DHT22;14240;51.064;16.612;2023-05-07T11:01:49;11.00;99.90
26599;DHT22;14240;51.064;16.612;2023-05-07T11:04:17;11.20;99.90
26599;DHT22;14240;51.064;16.612;2023-05-07T11:17:32;11.60;99.90
26599;DHT22;14240;51.064;16.612;2023-05-07T11:20:03;11.50;99.90
26599;DHT22;14240;51.064;16.612;2023-05-07T11:25:05;11.40;99.90
26599;DHT22;14240;51.064;16.612;2023-05-07T11:27:32;11.50;99.90
26599;DHT22;14240;51.064;16.612;2023-05-07T11:29:58;11.40;99.90
26599;DHT22;14240;51.064;16.612;2023-05-07T11:32:30;11.40;99.90
26599;DHT22;14240;51.064;16.612;2023-05-07T11:34:58;11.40;99.90
26599;DHT22;14240;51.064;16.612;2023-05-07T11:37:24;11.40;99.90
26599;DHT22;14240;51.064;16.612;2023-05-07T11:39:50;11.30;99.90
26599;DHT22;14240;51.064;16.612;2023-05-07T11:42:32;11.20;99.90
26599;DHT22;14240;51.064;16.612;2023-05-07T11:44:58;11.10;99.90
26599;DHT22;14240;51.064;16.612;2023-05-07T11:47:24;11.20;99.90
26599;DHT22;14240;51.064;16.612;2023-05-07T11:49:53;11.10;99.90
26599;DHT22;14240;51.064;16.612;2023-05-07T11:52:21;11.10;99.90
26599;DHT22;14240;51.064;16.612;2023-05-07T11:54:51;11.10;99.90
26599;DHT22;14240;51.064;16.612;2023-05-07T11:57:18;11.10;99.90
26599;DHT22;14240;51.064;16.612;2023-05-07T11:59:44;11.10;99.90
26599;DHT22;14240;51.064;16.612;2023-05-07T12:02:10;11.10;99.90
26599;DHT22;14240;51.064;16.612;2023-05-07T12:04:37;11.20;99.90
26599;DHT22;14240;51.064;16.612;2023-05-07T12:07:03;11.20;99.90
26599;DHT22;14240;51.064;16.612;2023-05-07T12:09:29;11.30;99.90
26599;DHT22;14240;51.064;16.612;2023-05-07T12:11:55;11.30;99.90
26599;DHT22;14240;51.064;16.612;2023-05-07T12:14:21;11.20;99.90
26599;DHT22;14240;51.064;16.612;2023-05-07T12:16:47;11.20;99.90
26599;DHT22;14240;51.064;16.612;2023-05-07T12:19:13;11.20;99.90
26599;DHT22;14240;51.064;16.612;2023-05-07T12:21:40;11.20;99.90
26599;DHT22;14240;51.064;16.612;2023-05-07T12:24:06;11.20;99.90
26599;DHT22;14240;51.064;16.612;2023-05-07T12:26:31;11.20;99.90
26599;DHT22;14240;51.064;16.612;2023-05-07T12:28:57;11.20;99.90
26599;DHT22;14240;51.064;16.612;2023-05-07T12:31:26;11.30;99.90
26599;DHT22;14240;51.064;16.612;2023-05-07T12:33:51;11.30;99.90
26599;DHT22;14240;51.064;16.612;2023-05-07T12:36:17;11.30;99.90
26599;DHT22;14240;51.064;16.612;2023-05-07T12:38:43;11.30;99.90
26599;DHT22;14240;51.064;16.612;2023-05-07T12:41:10;11.30;99.90
26599;DHT22;14240;51.064;16.612;2023-05-07T12:43:38;11.30;99.90
26599;DHT22;14240;51.064;16.612;2023-05-07T12:46:06;11.30;99.90
26599;DHT22;14240;51.064;16.612;2023-05-07T12:48:32;11.20;99.90
26599;DHT22;14240;51.064;16.612;2023-05-07T12:51:00;11.20;99.90
26599;DHT22;14240;51.064;16.612;2023-05-07T12:53:27;11.20;99.90
26599;DHT22;14240;51.064;16.612;2023-05-07T12:55:57;11.30;99.90
26599;DHT22;14240;51.064;16.612;2023-05-07T13:00:53;11.40;99.90
26599;DHT22;14240;51.064;16.612;2023-05-07T13:03:30;11.40;99.90
26599;DHT22;14240;51.064;16.612;2023-05-07T13:05:58;11.50;99.90
26599;DHT22;14240;51.064;16.612;2023-05-07T13:08:26;11.50;99.90
26599;DHT22;14240;51.064;16.612;2023-05-07T13:10:52;11.60;99.90
26599;DHT22;14240;51.064;16.612;2023-05-07T13:13:19;11.60;99.90
26599;DHT22;14240;51.064;16.612;2023-05-07T13:15:46;11.60;99.90
26599;DHT22;14240;51.064;16.612;2023-05-07T13:18:11;11.60;99.90
26599;DHT22;14240;51.064;16.612;2023-05-07T13:20:37;11.70;99.90
26599;DHT22;14240;51.064;16.612;2023-05-07T13:23:03;11.70;99.90
26599;DHT22;14240;51.064;16.612;2023-05-07T13:25:30;11.70;99.90
26599;DHT22;14240;51.064;16.612;2023-05-07T13:27:59;11.80;99.90
26599;DHT22;14240;51.064;16.612;2023-05-07T13:30:25;11.80;99.90
26599;DHT22;14240;51.064;16.612;2023-05-07T13:32:53;11.80;99.90
26599;DHT22;14240;51.064;16.612;2023-05-07T13:35:20;11.80;99.90
26599;DHT22;14240;51.064;16.612;2023-05-07T13:37:46;11.70;99.90
26599;DHT22;14240;51.064;16.612;2023-05-07T13:40:13;11.70;99.90
26599;DHT22;14240;51.064;16.612;2023-05-07T13:42:39;11.60;99.90
26599;DHT22;14240;51.064;16.612;2023-05-07T13:45:05;11.60;99.90
26599;DHT22;14240;51.064;16.612;2023-05-07T13:47:31;11.60;99.90
26599;DHT22;14240;51.064;16.612;2023-05-07T13:49:57;11.60;99.90
26599;DHT22;14240;51.064;16.612;2023-05-07T13:52:22;11.30;99.90
26599;DHT22;14240;51.064;16.612;2023-05-07T13:54:48;11.60;99.90
26599;DHT22;14240;51.064;16.612;2023-05-07T13:57:13;11.60;99.90
26599;DHT22;14240;51.064;16.612;2023-05-07T13:59:40;11.60;99.90
26599;DHT22;14240;51.064;16.612;2023-05-07T14:02:06;11.60;99.90
26599;DHT22;14240;51.064;16.612;2023-05-07T14:04:32;11.60;99.90
26599;DHT22;14240;51.064;16.612;2023-05-07T14:06:58;11.60;99.90
26599;DHT22;14240;51.064;16.612;2023-05-07T14:09:23;11.70;99.90
26599;DHT22;14240;51.064;16.612;2023-05-07T14:11:51;11.60;99.90
26599;DHT22;14240;51.064;16.612;2023-05-07T14:14:19;11.60;99.90
26599;DHT22;14240;51.064;16.612;2023-05-07T14:16:45;11.60;99.90
26599;DHT22;14240;51.064;16.612;2023-05-07T14:19:11;11.60;99.90
26599;DHT22;14240;51.064;16.612;2023-05-07T14:21:37;11.60;99.90
26599;DHT22;14240;51.064;16.612;2023-05-07T14:24:03;11.60;99.90
26599;DHT22;14240;51.064;16.612;2023-05-07T14:26:29;11.50;99.90
26599;DHT22;14240;51.064;16.612;2023-05-07T14:28:55;11.50;99.90
26599;DHT22;14240;51.064;16.612;2023-05-07T14:31:22;11.40;99.90
26599;DHT22;14240;51.064;16.612;2023-05-07T14:33:48;11.40;99.90
26599;DHT22;14240;51.064;16.612;2023-05-07T14:36:18;11.30;99.90
26599;DHT22;14240;51.064;16.612;2023-05-07T14:38:48;11.30;99.90
26599;DHT22;14240;51.064;16.612;2023-05-07T14:41:14;11.20;99.90
26599;DHT22;14240;51.064;16.612;2023-05-07T14:43:40;11.20;99.90
26599;DHT22;14240;51.064;16.612;2023-05-07T14:46:06;11.20;99.90
26599;DHT22;14240;51.064;16.612;2023-05-07T14:48:31;11.20;99.90
26599;DHT22;14240;51.064;16.612;2023-05-07T14:50:57;11.20;99.90
26599;DHT22;14240;51.064;16.612;2023-05-07T14:53:23;11.10;99.90
26599;DHT22;14240;51.064;16.612;2023-05-07T14:55:49;11.20;99.90
26599;DHT22;14240;51.064;16.612;2023-05-07T14:58:14;11.20;99.90
26599;DHT22;14240;51.064;16.612;2023-05-07T15:00:40;11.10;99.90
26599;DHT22;14240;51.064;16.612;2023-05-07T15:03:08;11.10;99.90
26599;DHT22;14240;51.064;16.612;2023-05-07T15:05:36;11.10;99.90
26599;DHT22;14240;51.064;16.612;2023-05-07T15:08:06;11.10;99.90
26599;DHT22;14240;51.064;16.612;2023-05-07T15:10:35;11.00;99.90
26599;DHT22;14240;51.064;16.612;2023-05-07T15:13:09;10.90;99.90
26599;DHT22;14240;51.064;16.612;2023-05-07T15:15:35;10.90;99.90
26599;DHT22;14240;51.064;16.612;2023-05-07T15:18:01;10.80;99.90
26599;DHT22;14240;51.064;16.612;2023-05-07T15:20:26;10.80;99.90
26599;DHT22;14240;51.064;16.612;2023-05-07T15:22:52;10.80;99.90
26599;DHT22;14240;51.064;16.612;2023-05-07T15:25:18;10.80;99.90
26599;DHT22;14240;51.064;16.612;2023-05-07T15:27:44;10.80;99.90
26599;DHT22;14240;51.064;16.612;2023-05-07T15:30:10;10.80;99.90
26599;DHT22;14240;51.064;16.612;2023-05-07T15:32:37;10.80;99.90
26599;DHT22;14240;51.064;16.612;2023-05-07T15:35:05;10.80;99.90
26599;DHT22;14240;51.064;16.612;2023-05-07T15:37:31;10.80;99.90
26599;DHT22;14240;51.064;16.612;2023-05-07T15:39:57;10.90;99.90
26599;DHT22;14240;51.064;16.612;2023-05-07T15:42:22;10.90;99.90
26599;DHT22;14240;51.064;16.612;2023-05-07T15:44:48;10.90;99.90
26599;DHT22;14240;51.064;16.612;2023-05-07T15:47:14;10.80;99.90
26599;DHT22;14240;51.064;16.612;2023-05-07T15:49:41;10.80;99.90
26599;DHT22;14240;51.064;16.612;2023-05-07T15:52:07;10.80;99.90